Pagrindinis puslapis
METAR-TAF:

METAR-TAF

Oro uostai :

Atka, Aliaska, Jungtinės Amerikos Valstijos

platuma: 52-13-13N, ilguma: 174-12-23W, Aukštis: 17 m

Dabartinis oras

Ataskaita buvo paskelbta 35 minutes, ne 20:56 UTC
Ramus vėjas
Temperatūra -3°C
Drėgmė 80%
Slėgis 997 hPa
Giedras dangus

METAR: PAAK 012056Z AUTO 00000KT CLR M03/M06 A2945 RMK AO2 SLP974 T10331061 51008 FZRANO

Laikas: 12:31 (21:31 UTC)


TAF: trūkstamas

Orai ataskaitas ir orų prognozės (METAR, TAF).

turimą stotys yra geltonos ir raudonos taškus žemėlapyje.

Perkelti pele per norėdami pamatyti stoties vardą.

Tada spustelėkite, norėdami matyti oro stebėjimo ir prognozės.

Norėdami pakeisti žemėlapį: spustelėkite ant žalios mygtukų su juodo kryžiaus žemyn,; žalią mygtuką su brūkšneliu, jei norite nutolinti; arba žalių rodyklių gretimoms žemėlapius.


METAR-TAF: